createdAt,value
2023-02-12T00:02:34.566Z,-1.5
2023-02-12T00:08:11.492Z,-1.4
2023-02-12T00:13:48.453Z,-1.3
2023-02-12T00:18:55.419Z,-1.3
2023-02-12T00:24:33.485Z,-1.4
2023-02-12T00:30:12.440Z,-1.4
2023-02-12T00:35:35.600Z,-1.4
2023-02-12T00:41:14.412Z,-1.5
2023-02-12T00:46:52.227Z,-1.6
2023-02-12T00:52:32.768Z,-1.7
2023-02-12T00:58:09.930Z,-1.8
2023-02-12T01:03:48.052Z,-1.9
2023-02-12T01:09:25.504Z,-1.8
2023-02-12T01:15:02.499Z,-1.8
2023-02-12T01:20:41.674Z,-1.7
2023-02-12T01:26:04.244Z,-1.7
2023-02-12T01:31:43.380Z,-1.8
2023-02-12T01:37:22.380Z,-1.8
2023-02-12T01:43:02.563Z,-1.8
2023-02-12T01:48:40.249Z,-1.8
2023-02-12T01:54:18.146Z,-1.9
2023-02-12T01:59:56.108Z,-2.1
2023-02-12T02:05:34.051Z,-2.1
2023-02-12T02:10:56.531Z,-2.2
2023-02-12T02:16:34.417Z,-2.3
2023-02-12T02:22:12.153Z,-2.3
2023-02-12T02:27:48.885Z,-2.4
2023-02-12T02:33:26.216Z,-2.4
2023-02-12T02:39:19.243Z,-2.4
2023-02-12T02:44:56.105Z,-2.3
2023-02-12T02:50:33.924Z,-2.2
2023-02-12T02:56:12.696Z,-2.2
2023-02-12T03:01:35.825Z,-2.2
2023-02-12T03:06:58.236Z,-2.2
2023-02-12T03:12:36.664Z,-2.1
2023-02-12T03:18:14.096Z,-2.1
2023-02-12T03:23:50.548Z,-2
2023-02-12T03:29:12.772Z,-1.9
2023-02-12T03:34:34.855Z,-1.8
2023-02-12T03:40:11.196Z,-1.6
2023-02-12T03:45:49.115Z,-1.5
2023-02-12T03:51:26.341Z,-1.4
2023-02-12T03:57:03.360Z,-1.4
2023-02-12T04:02:42.018Z,-1.4
2023-02-12T04:08:20.135Z,-1.4
2023-02-12T04:13:55.515Z,-1.4
2023-02-12T04:19:35.133Z,-1.4
2023-02-12T04:25:13.552Z,-1.3
2023-02-12T04:30:51.743Z,-1.3
2023-02-12T04:36:30.035Z,-1.3
2023-02-12T04:41:51.417Z,-1.3
2023-02-12T04:47:27.750Z,-1.3
2023-02-12T04:53:05.526Z,-1.3
2023-02-12T04:58:41.910Z,-1.2
2023-02-12T05:04:23.120Z,-1.1
2023-02-12T05:15:22.175Z,-0.9
2023-02-12T05:20:44.120Z,-0.8
2023-02-12T05:26:21.424Z,-0.6
2023-02-12T05:31:43.919Z,-0.5
2023-02-12T05:37:21.911Z,-0.4
2023-02-12T05:42:44.767Z,-0.4
2023-02-12T05:48:21.402Z,-0.4
2023-02-12T05:53:44.356Z,-0.3
2023-02-12T05:59:23.318Z,-0.4
2023-02-12T06:04:59.964Z,-0.4
2023-02-12T06:10:21.202Z,-0.4
2023-02-12T06:16:01.077Z,-0.3
2023-02-12T06:21:22.699Z,-0.3
2023-02-12T06:26:43.377Z,-0.3
2023-02-12T06:32:21.855Z,-0.3
2023-02-12T06:37:59.062Z,-0.2
2023-02-12T06:43:35.230Z,-0.1
2023-02-12T06:48:58.213Z,-0.1
2023-02-12T06:54:38.847Z,-0.1
2023-02-12T07:00:00.866Z,0
2023-02-12T07:05:39.224Z,0.1
2023-02-12T07:11:01.334Z,0.1
2023-02-12T07:16:10.380Z,0.2
2023-02-12T07:21:33.049Z,0.3
2023-02-12T07:26:41.870Z,0.4
2023-02-12T07:31:48.587Z,0.5
2023-02-12T07:37:25.984Z,0.5
2023-02-12T07:43:02.814Z,0.6
2023-02-12T07:48:24.511Z,0.6
2023-02-12T07:54:02.065Z,0.8
2023-02-12T07:59:23.392Z,0.8
2023-02-12T08:04:45.241Z,0.9
2023-02-12T08:10:23.526Z,0.9
2023-02-12T08:16:00.679Z,1
2023-02-12T08:21:52.108Z,1.1
2023-02-12T08:27:30.141Z,1.2
2023-02-12T08:33:08.304Z,1.3
2023-02-12T08:38:45.479Z,1.4
2023-02-12T08:44:23.109Z,1.6
2023-02-12T08:49:45.071Z,1.7
2023-02-12T08:55:07.445Z,1.8
2023-02-12T09:00:45.202Z,1.9
2023-02-12T09:06:22.225Z,2.1
2023-02-12T09:11:43.220Z,2.2
2023-02-12T09:17:21.713Z,2.5
2023-02-12T09:22:59.175Z,2.8
2023-02-12T09:28:35.414Z,3.2
2023-02-12T09:33:58.504Z,3.6
2023-02-12T09:39:20.734Z,4
2023-02-12T09:44:57.709Z,4.4
2023-02-12T09:50:37.119Z,4.8
2023-02-12T09:56:14.494Z,5.1
2023-02-12T10:02:00.364Z,5.6
2023-02-12T10:07:36.342Z,6.1
2023-02-12T10:13:17.325Z,6.6
2023-02-12T10:18:56.880Z,7.1
2023-02-12T10:24:42.064Z,7.5
2023-02-12T10:30:05.137Z,8.4
2023-02-12T10:35:29.088Z,10.1
2023-02-12T10:41:06.490Z,12.6
2023-02-12T10:46:45.116Z,15.5
2023-02-12T10:52:23.175Z,17.6
2023-02-12T10:58:02.803Z,18.1
2023-02-12T11:03:40.835Z,18.3
2023-02-12T11:09:17.639Z,18
2023-02-12T11:14:55.984Z,17.5
2023-02-12T11:20:35.678Z,17.8
2023-02-12T11:26:14.234Z,18.3
2023-02-12T11:31:37.202Z,19.9
2023-02-12T11:37:18.619Z,21.6
2023-02-12T11:42:55.811Z,22
2023-02-12T11:48:32.907Z,21.6
2023-02-12T11:53:39.449Z,21.4
2023-02-12T12:04:39.628Z,20.9
2023-02-12T12:10:18.102Z,20.5
2023-02-12T12:15:40.086Z,20.1
2023-02-12T12:21:18.340Z,19.5
2023-02-12T12:26:55.329Z,18.9
2023-02-12T12:32:16.677Z,18.3
2023-02-12T12:37:53.584Z,17.8
2023-02-12T12:43:31.069Z,17.1
2023-02-12T12:49:08.817Z,16.6
2023-02-12T12:54:31.359Z,16.5
2023-02-12T13:00:09.184Z,16.3
2023-02-12T13:05:48.313Z,15.4
2023-02-12T13:11:25.899Z,14.8
2023-02-12T13:17:03.515Z,14.1
2023-02-12T13:22:26.394Z,13.6
2023-02-12T13:28:05.208Z,13.3
2023-02-12T13:33:51.799Z,13.3
2023-02-12T13:39:14.479Z,13.3
2023-02-12T13:44:23.595Z,13.1
2023-02-12T13:49:46.883Z,12.7
2023-02-12T13:55:08.518Z,12.3
2023-02-12T14:00:30.746Z,11.8
2023-02-12T14:05:54.136Z,11.3
2023-02-12T14:11:17.160Z,10.8
2023-02-12T14:16:41.936Z,10.3
2023-02-12T14:22:06.240Z,9.8
2023-02-12T14:27:28.195Z,9.2
2023-02-12T14:32:36.197Z,8.8
2023-02-12T14:37:59.327Z,8.4
2023-02-12T14:43:19.480Z,8
2023-02-12T14:48:41.561Z,7.6
2023-02-12T14:54:03.692Z,7.3
2023-02-12T14:59:26.665Z,7
2023-02-12T15:05:04.515Z,6.7
2023-02-12T15:10:11.866Z,6.4
2023-02-12T15:15:49.467Z,6.1
2023-02-12T15:21:27.320Z,5.8
2023-02-12T15:27:05.447Z,5.5
2023-02-12T15:32:46.417Z,5.3
2023-02-12T15:38:29.802Z,4.9
2023-02-12T15:43:36.419Z,4.7
2023-02-12T15:49:16.158Z,4.4
2023-02-12T15:54:52.752Z,4.2
2023-02-12T15:59:46.755Z,4
2023-02-12T16:05:07.923Z,3.8
2023-02-12T16:10:46.131Z,3.6
2023-02-12T16:15:52.717Z,3.4
2023-02-12T16:21:14.465Z,3.2
2023-02-12T16:26:52.167Z,2.9
2023-02-12T16:32:30.886Z,2.8
2023-02-12T16:38:08.139Z,2.6
2023-02-12T16:43:46.204Z,2.4
2023-02-12T16:49:24.882Z,2.3
2023-02-12T16:55:02.053Z,2.2
2023-02-12T17:00:24.626Z,2
2023-02-12T17:05:48.081Z,1.9
2023-02-12T17:11:10.945Z,1.7
2023-02-12T17:16:47.773Z,1.6
2023-02-12T17:22:25.327Z,1.5
2023-02-12T17:27:47.688Z,1.4
2023-02-12T17:33:10.265Z,1.3
2023-02-12T17:39:03.141Z,1.3
2023-02-12T17:44:41.252Z,1.2
2023-02-12T17:50:19.957Z,1.1
2023-02-12T17:55:58.032Z,1.1
2023-02-12T18:01:35.693Z,1
2023-02-12T18:06:42.467Z,0.9
2023-02-12T18:12:05.532Z,0.9
2023-02-12T18:17:41.733Z,0.9
2023-02-12T18:23:19.739Z,0.9
2023-02-12T18:28:57.621Z,0.8
2023-02-12T18:34:35.700Z,0.8
2023-02-12T18:40:13.746Z,0.8
2023-02-12T18:45:35.959Z,0.8
2023-02-12T18:51:14.923Z,0.7
2023-02-12T18:56:53.300Z,0.7
2023-02-12T19:02:16.594Z,0.6
2023-02-12T19:07:39.361Z,0.6
2023-02-12T19:13:02.261Z,0.4
2023-02-12T19:18:24.764Z,0.4
2023-02-12T19:23:47.336Z,0.4
2023-02-12T19:29:50.226Z,0.3
2023-02-12T19:34:59.618Z,0.2
2023-02-12T19:40:22.575Z,0.1
2023-02-12T19:46:02.264Z,-0.1
2023-02-12T19:51:24.316Z,-0.3
2023-02-12T19:56:46.976Z,-0.4
2023-02-12T20:01:53.767Z,-0.5
2023-02-12T20:06:45.126Z,-0.6
2023-02-12T20:11:52.014Z,-0.7
2023-02-12T20:17:15.179Z,-0.9
2023-02-12T20:22:24.592Z,-1
2023-02-12T20:27:46.154Z,-1.1
2023-02-12T20:33:08.811Z,-1.3
2023-02-12T20:38:38.736Z,-1.3
2023-02-12T20:44:00.872Z,-1.4
2023-02-12T20:49:06.812Z,-1.4
2023-02-12T20:54:30.433Z,-1.4
2023-02-12T20:59:52.233Z,-1.5
2023-02-12T21:05:30.244Z,-1.6
2023-02-12T21:11:08.289Z,-1.6
2023-02-12T21:16:39.680Z,-1.7
2023-02-12T21:22:17.192Z,-1.8
2023-02-12T21:27:56.414Z,-1.8
2023-02-12T21:33:19.766Z,-1.9
2023-02-12T21:38:56.800Z,-2
2023-02-12T21:44:41.277Z,-2.1
2023-02-12T21:49:53.942Z,-2.2
2023-02-12T21:55:31.125Z,-2.3
2023-02-12T22:01:08.372Z,-2.4
2023-02-12T22:06:44.457Z,-2.6
2023-02-12T22:12:21.195Z,-2.7
2023-02-12T22:17:59.230Z,-2.8
2023-02-12T22:23:36.509Z,-2.8
2023-02-12T22:29:13.345Z,-2.8
2023-02-12T22:34:20.050Z,-2.9
2023-02-12T22:39:57.612Z,-2.9
2023-02-12T22:45:35.309Z,-2.9
2023-02-12T22:51:12.897Z,-3
2023-02-12T22:56:50.006Z,-3
2023-02-12T23:02:27.795Z,-3.1
2023-02-12T23:08:20.297Z,-3
2023-02-12T23:13:58.671Z,-3
2023-02-12T23:19:20.483Z,-3.1
2023-02-12T23:24:27.468Z,-3.1
2023-02-12T23:29:49.444Z,-3.1
2023-02-12T23:35:28.473Z,-3.2
2023-02-12T23:40:49.639Z,-3.3
2023-02-12T23:45:56.844Z,-3.3
2023-02-12T23:51:18.292Z,-3.3
2023-02-12T23:56:46.883Z,-3.4
